Schedule Details

Flight Number: ASX307X
Departure: Copenhagen Kastrup (EKCH) at 11:20Z
Arrival: Gdansk im. Lecha Walesy (EPGD) at 13:20Z

Weather Information
EKCH 180619Z 23003KT 9999 OVC037 02/M03 Q1027 NOSIG
EPGD 180630Z 29002KT 8000 SCT041 M03/M04 Q1026

Schedule Frequency

Route Map